Startpagina
METAR-TAF:

METAR-TAF

Vliegvelden :

Aeroporto Internacional de Campo Grande

Campo Grande, Mato Grosso do Sul, Brazilië

breedte: 20-28S, lengte: 054-40W, hoogte: 567 m

Actueel weer

Dit bericht is 32 minuten geleden gemaakt, om 12:00 UTC
Wind 13 kt uit het oostnoordoosten
Temperatuur 23°C
Vochtigheid 41%
Druk 1018 hPa
Zicht 10 km of meer
geen wolken onder 1500 m en geen cumulonimbus

METAR: SBCG 301200Z 06013KT CAVOK 23/09 Q1018

Tijdstip: 08:32 (12:32 UTC)

Verwachting

Dit bericht is 3 uur en het 32 minuten geleden gemaakt, om 09:00 UTC
Verwachting geldig van 30 om 12 UTC tot 31 om 12 UTC
Wind 8 kt uit het oostnoordoosten
Zicht 10 km of meer
geen wolken onder 1500 m en geen cumulonimbus

TAF: SBCG 300900Z 3012/3112 06008KT CAVOK TX26/3017Z TN12/3108Z RMK PDU

Waarnemingen en weersverwachtingen van meer dan 4000 vliegvelden (METAR en TAF).

De beschikbare stations zijn de gele en rode punten op de kaart.

Ga met uw muis naar het station om de naam te zien.

Klik dan om waarnemingen en weersverwachtingen te zien.

kaart wijzigen: klik op de groene knoppen met een zwart kruis om in te zoomen, op de groene knop met een streepje om uit te zoomen of op de groene pijlen voor aangrenzende kaarten.


METAR-TAF: